createdAt,value
2017-03-24T00:01:09.293Z,0
2017-03-24T00:02:19.555Z,0
2017-03-24T00:03:29.810Z,0
2017-03-24T00:04:40.068Z,0
2017-03-24T00:05:50.010Z,0
2017-03-24T00:06:59.955Z,0
2017-03-24T00:08:10.220Z,0
2017-03-24T00:09:20.483Z,0
2017-03-24T00:10:30.736Z,0
2017-03-24T00:11:41.002Z,0
2017-03-24T00:12:51.260Z,0
2017-03-24T00:14:01.523Z,0
2017-03-24T00:15:11.789Z,0
2017-03-24T00:16:22.061Z,0
2017-03-24T00:17:31.998Z,0
2017-03-24T00:18:41.945Z,0
2017-03-24T00:19:52.197Z,0
2017-03-24T00:21:02.457Z,0
2017-03-24T00:22:12.721Z,0
2017-03-24T00:23:22.664Z,0
2017-03-24T00:24:32.936Z,0
2017-03-24T00:25:42.882Z,0
2017-03-24T00:26:53.135Z,0
2017-03-24T00:28:03.395Z,0
2017-03-24T00:29:13.657Z,0
2017-03-24T00:30:23.908Z,0
2017-03-24T00:31:34.161Z,0
2017-03-24T00:32:44.426Z,0
2017-03-24T00:33:54.682Z,0
2017-03-24T00:35:04.943Z,0
2017-03-24T00:36:15.204Z,0
2017-03-24T00:37:25.457Z,0
2017-03-24T00:38:35.718Z,0
2017-03-24T00:39:45.985Z,0
2017-03-24T00:40:56.242Z,0
2017-03-24T00:42:06.494Z,0
2017-03-24T00:43:16.751Z,0
2017-03-24T00:44:27.012Z,0
2017-03-24T00:45:36.956Z,0
2017-03-24T00:46:47.205Z,0
2017-03-24T00:47:57.468Z,0
2017-03-24T00:49:07.732Z,0
2017-03-24T00:50:17.986Z,0
2017-03-24T00:51:28.238Z,0
2017-03-24T00:52:37.858Z,0
2017-03-24T00:53:48.118Z,0
2017-03-24T00:54:58.382Z,0
2017-03-24T00:56:08.644Z,0
2017-03-24T00:57:18.580Z,0
2017-03-24T00:58:28.521Z,0
2017-03-24T00:59:38.776Z,0
2017-03-24T01:00:49.028Z,0
2017-03-24T01:01:59.278Z,0
2017-03-24T01:03:09.538Z,0
2017-03-24T01:04:19.814Z,0
2017-03-24T01:05:30.067Z,0
2017-03-24T01:06:40.004Z,0
2017-03-24T01:07:50.266Z,0
2017-03-24T01:09:00.532Z,0
2017-03-24T01:10:10.477Z,0
2017-03-24T01:11:20.420Z,0
2017-03-24T01:12:30.371Z,0
2017-03-24T01:13:40.320Z,0
2017-03-24T01:14:50.578Z,0
2017-03-24T01:16:00.828Z,0
2017-03-24T01:17:11.090Z,0
2017-03-24T01:18:21.034Z,0
2017-03-24T01:19:31.291Z,0
2017-03-24T01:20:41.541Z,0
2017-03-24T01:21:51.478Z,0
2017-03-24T01:23:01.420Z,0
2017-03-24T01:24:11.374Z,0
2017-03-24T01:25:21.316Z,0
2017-03-24T01:26:31.582Z,0
2017-03-24T01:27:41.840Z,0
2017-03-24T01:28:52.110Z,0
2017-03-24T01:30:02.369Z,0
2017-03-24T01:31:12.625Z,0
2017-03-24T01:32:22.881Z,0
2017-03-24T01:33:32.832Z,0
2017-03-24T01:34:42.769Z,0
2017-03-24T01:35:53.016Z,0
2017-03-24T01:37:02.950Z,0
2017-03-24T01:38:13.215Z,0
2017-03-24T01:39:23.517Z,0
2017-03-24T01:40:33.781Z,0
2017-03-24T01:41:43.726Z,0
2017-03-24T01:42:53.985Z,0
2017-03-24T01:44:04.238Z,0
2017-03-24T01:45:13.870Z,0
2017-03-24T01:46:24.133Z,0
2017-03-24T01:47:34.377Z,0
2017-03-24T01:48:44.639Z,0
2017-03-24T01:49:54.584Z,0
2017-03-24T01:51:04.842Z,0
2017-03-24T01:52:15.097Z,0
2017-03-24T01:53:25.077Z,0
2017-03-24T01:54:35.026Z,0
2017-03-24T01:55:45.282Z,0
2017-03-24T01:56:55.540Z,0
2017-03-24T01:58:05.846Z,0
2017-03-24T01:59:15.793Z,0
2017-03-24T02:00:25.739Z,0
2017-03-24T02:01:35.367Z,0
2017-03-24T02:02:45.631Z,0
2017-03-24T02:03:55.574Z,0
2017-03-24T02:05:05.524Z,0
2017-03-24T02:06:15.777Z,0
2017-03-24T02:07:26.027Z,0
2017-03-24T02:08:36.284Z,0
2017-03-24T02:09:46.542Z,0
2017-03-24T02:10:56.790Z,0
2017-03-24T02:12:07.047Z,0
2017-03-24T02:13:17.325Z,0
2017-03-24T02:14:27.588Z,0
2017-03-24T02:15:37.568Z,0
2017-03-24T02:16:47.505Z,0
2017-03-24T02:17:57.755Z,0
2017-03-24T02:19:10.264Z,0
2017-03-24T02:20:20.200Z,0
2017-03-24T02:21:30.461Z,0
2017-03-24T02:22:40.723Z,0
2017-03-24T02:23:50.986Z,0
2017-03-24T02:25:00.931Z,0
2017-03-24T02:26:10.880Z,0
2017-03-24T02:27:21.138Z,0
2017-03-24T02:28:31.390Z,0
2017-03-24T02:29:41.650Z,0
2017-03-24T02:30:51.913Z,0
2017-03-24T02:32:01.857Z,0
2017-03-24T02:33:11.800Z,0
2017-03-24T02:34:22.055Z,0
2017-03-24T02:35:32.310Z,0
2017-03-24T02:36:42.248Z,0
2017-03-24T02:37:52.518Z,0
2017-03-24T02:39:02.465Z,0
2017-03-24T02:40:12.735Z,0
2017-03-24T02:41:22.670Z,0
2017-03-24T02:42:32.926Z,0
2017-03-24T02:43:42.877Z,0
2017-03-24T02:44:53.134Z,0
2017-03-24T02:46:03.434Z,0
2017-03-24T02:47:13.371Z,0
2017-03-24T02:48:23.306Z,0
2017-03-24T02:49:32.943Z,0
2017-03-24T02:50:43.197Z,0
2017-03-24T02:51:53.448Z,0
2017-03-24T02:53:03.701Z,0
2017-03-24T02:54:13.667Z,0
2017-03-24T02:55:23.924Z,0
2017-03-24T02:56:34.183Z,0
2017-03-24T02:57:44.443Z,0
2017-03-24T02:58:54.701Z,0
2017-03-24T03:00:04.958Z,0
2017-03-24T03:01:14.900Z,0
2017-03-24T03:02:25.158Z,0
2017-03-24T03:03:35.414Z,0
2017-03-24T03:04:45.674Z,0
2017-03-24T03:05:55.930Z,0
2017-03-24T03:07:05.872Z,0
2017-03-24T03:08:16.136Z,0
2017-03-24T03:09:26.084Z,0
2017-03-24T03:10:36.338Z,0
2017-03-24T03:11:46.734Z,0
2017-03-24T03:12:56.360Z,0
2017-03-24T03:14:06.620Z,0
2017-03-24T03:15:16.875Z,0
2017-03-24T03:16:26.808Z,0
2017-03-24T03:17:37.060Z,0
2017-03-24T03:18:47.319Z,0
2017-03-24T03:19:57.578Z,0
2017-03-24T03:21:07.829Z,0
2017-03-24T03:22:18.089Z,0
2017-03-24T03:23:28.029Z,0
2017-03-24T03:24:37.678Z,0
2017-03-24T03:25:47.936Z,0
2017-03-24T03:26:58.221Z,0
2017-03-24T03:28:08.160Z,0
2017-03-24T03:29:18.418Z,0
2017-03-24T03:30:28.356Z,0
2017-03-24T03:31:37.978Z,0
2017-03-24T03:32:48.235Z,0
2017-03-24T03:33:58.500Z,0
2017-03-24T03:35:08.762Z,0
2017-03-24T03:36:19.016Z,0
2017-03-24T03:37:29.380Z,0
2017-03-24T03:38:39.636Z,0
2017-03-24T03:39:49.891Z,0
2017-03-24T03:41:00.150Z,0
2017-03-24T03:42:10.406Z,0
2017-03-24T03:43:20.665Z,0
2017-03-24T03:44:30.934Z,0
2017-03-24T03:45:40.564Z,0
2017-03-24T03:46:50.813Z,0
2017-03-24T03:48:01.076Z,0
2017-03-24T03:49:11.330Z,0
2017-03-24T03:50:21.274Z,0
2017-03-24T03:51:31.221Z,0
2017-03-24T03:52:41.168Z,0
2017-03-24T03:53:51.423Z,0
2017-03-24T03:55:01.682Z,0
2017-03-24T03:56:11.623Z,0
2017-03-24T03:57:21.878Z,0
2017-03-24T03:58:32.125Z,0
2017-03-24T03:59:42.393Z,0
2017-03-24T04:00:52.648Z,0
2017-03-24T04:02:02.591Z,0
2017-03-24T04:03:12.852Z,0
2017-03-24T04:04:23.113Z,0
2017-03-24T04:05:33.365Z,0
2017-03-24T04:06:43.616Z,0
2017-03-24T04:07:53.873Z,0
2017-03-24T04:09:04.130Z,0
2017-03-24T04:10:14.077Z,0
2017-03-24T04:11:24.328Z,0
2017-03-24T04:12:34.589Z,0
2017-03-24T04:13:44.868Z,0
2017-03-24T04:14:55.128Z,0
2017-03-24T04:16:05.078Z,0
2017-03-24T04:17:15.331Z,0
2017-03-24T04:18:25.589Z,0
2017-03-24T04:19:35.545Z,0
2017-03-24T04:20:45.798Z,0
2017-03-24T04:21:56.053Z,0
2017-03-24T04:23:06.337Z,0
2017-03-24T04:24:16.610Z,0
2017-03-24T04:25:26.863Z,0
2017-03-24T04:26:37.114Z,4
2017-03-24T04:27:47.371Z,4
2017-03-24T04:28:57.632Z,0
2017-03-24T04:30:07.573Z,0
2017-03-24T04:31:17.516Z,4
2017-03-24T04:32:27.768Z,0
2017-03-24T04:33:38.029Z,4
2017-03-24T04:34:48.299Z,4
2017-03-24T04:35:58.555Z,4
2017-03-24T04:37:08.819Z,4
2017-03-24T04:38:19.074Z,8
2017-03-24T04:39:29.337Z,8
2017-03-24T04:40:39.599Z,8
2017-03-24T04:41:49.854Z,8
2017-03-24T04:42:59.489Z,12
2017-03-24T04:44:09.755Z,16
2017-03-24T04:45:20.013Z,16
2017-03-24T04:46:29.960Z,16
2017-03-24T04:47:39.905Z,20
2017-03-24T04:48:50.160Z,24
2017-03-24T04:50:00.145Z,28
2017-03-24T04:51:10.411Z,32
2017-03-24T04:52:20.662Z,36
2017-03-24T04:53:30.911Z,44
2017-03-24T04:54:41.166Z,44
2017-03-24T04:55:51.416Z,52
2017-03-24T04:57:01.675Z,60
2017-03-24T04:58:11.933Z,72
2017-03-24T04:59:21.890Z,80
2017-03-24T05:00:32.148Z,88
2017-03-24T05:01:42.085Z,100
2017-03-24T05:02:52.023Z,108
2017-03-24T05:04:01.969Z,120
2017-03-24T05:05:12.230Z,124
2017-03-24T05:06:22.488Z,136
2017-03-24T05:07:32.746Z,140
2017-03-24T05:08:43.011Z,148
2017-03-24T05:09:53.276Z,156
2017-03-24T05:11:03.533Z,164
2017-03-24T05:12:13.472Z,172
2017-03-24T05:13:23.737Z,184
2017-03-24T05:14:34.011Z,196
2017-03-24T05:15:44.267Z,208
2017-03-24T05:16:54.526Z,220
2017-03-24T05:18:04.793Z,236
2017-03-24T05:19:15.051Z,256
2017-03-24T05:20:25.000Z,268
2017-03-24T05:21:35.262Z,288
2017-03-24T05:22:45.522Z,304
2017-03-24T05:23:55.776Z,320
2017-03-24T05:25:06.029Z,340
2017-03-24T05:26:15.969Z,360
2017-03-24T05:27:26.226Z,388
2017-03-24T05:28:36.168Z,412
2017-03-24T05:29:46.113Z,436
2017-03-24T05:30:56.362Z,468
2017-03-24T05:32:06.306Z,496
2017-03-24T05:33:16.569Z,528
2017-03-24T05:34:26.825Z,568
2017-03-24T05:35:36.781Z,608
2017-03-24T05:36:47.043Z,648
2017-03-24T05:37:57.002Z,700
2017-03-24T05:39:07.270Z,760
2017-03-24T05:40:17.531Z,832
2017-03-24T05:41:27.469Z,928
2017-03-24T05:42:37.726Z,1024
2017-03-24T05:43:47.993Z,1124
2017-03-24T05:44:58.258Z,1220
2017-03-24T05:46:08.208Z,1320
2017-03-24T05:47:18.458Z,1412
2017-03-24T05:48:28.720Z,1504
2017-03-24T05:49:38.976Z,1596
2017-03-24T05:50:49.249Z,1688
2017-03-24T05:51:59.499Z,1760
2017-03-24T05:53:09.757Z,1832
2017-03-24T05:54:20.023Z,1896
2017-03-24T05:55:30.278Z,1940
2017-03-24T05:56:40.540Z,1960
2017-03-24T05:57:50.790Z,1960
2017-03-24T05:59:01.058Z,1956
2017-03-24T06:00:11.313Z,1936
2017-03-24T06:01:21.918Z,1920
2017-03-24T06:02:32.171Z,1900
2017-03-24T06:03:42.112Z,1896
2017-03-24T06:04:52.367Z,1892
2017-03-24T06:06:02.618Z,1900
2017-03-24T06:07:12.565Z,1936
2017-03-24T06:08:22.196Z,1980
2017-03-24T06:09:32.455Z,2036
2017-03-24T06:10:42.705Z,2092
2017-03-24T06:11:52.954Z,2144
2017-03-24T06:13:03.207Z,2200
2017-03-24T06:14:13.470Z,2268
2017-03-24T06:15:23.734Z,2332
2017-03-24T06:16:33.680Z,2360
2017-03-24T06:17:43.315Z,2368
2017-03-24T06:18:53.265Z,2368
2017-03-24T06:20:03.523Z,2364
2017-03-24T06:21:13.776Z,2360
2017-03-24T06:22:24.034Z,2356
2017-03-24T06:23:34.305Z,2344
2017-03-24T06:24:44.565Z,2344
2017-03-24T06:25:54.823Z,2352
2017-03-24T06:27:05.119Z,2356
2017-03-24T06:28:15.061Z,2368
2017-03-24T06:29:25.013Z,2384
2017-03-24T06:30:34.638Z,2388
2017-03-24T06:31:44.576Z,2412
2017-03-24T06:32:54.834Z,2440
2017-03-24T06:34:05.103Z,2476
2017-03-24T06:35:15.046Z,2520
2017-03-24T06:36:25.303Z,2584
2017-03-24T06:37:35.251Z,2644
2017-03-24T06:38:45.523Z,2708
2017-03-24T06:39:55.786Z,2760
2017-03-24T06:41:05.728Z,2816
2017-03-24T06:42:15.983Z,2860
2017-03-24T06:43:25.930Z,2904
2017-03-24T06:44:36.194Z,2956
2017-03-24T06:45:46.449Z,3020
2017-03-24T06:46:56.702Z,3104
2017-03-24T06:48:06.646Z,3208
2017-03-24T06:49:16.902Z,3332
2017-03-24T06:50:27.166Z,3436
2017-03-24T06:51:37.106Z,3508
2017-03-24T06:52:46.423Z,3528
2017-03-24T06:53:56.679Z,3556
2017-03-24T06:55:06.947Z,3580
2017-03-24T06:56:17.248Z,3616
2017-03-24T06:57:27.506Z,3644
2017-03-24T06:58:37.766Z,3680
2017-03-24T06:59:48.026Z,3724
2017-03-24T07:00:58.276Z,3816
2017-03-24T07:02:08.536Z,3960
2017-03-24T07:03:18.794Z,4140
2017-03-24T07:04:29.053Z,4380
2017-03-24T07:05:39.321Z,4652
2017-03-24T07:06:49.581Z,4920
2017-03-24T07:07:59.842Z,5160
2017-03-24T07:09:09.789Z,5376
2017-03-24T07:10:19.733Z,5564
2017-03-24T07:11:30.007Z,5676
2017-03-24T07:12:39.951Z,5732
2017-03-24T07:13:49.594Z,5792
2017-03-24T07:14:59.851Z,5864
2017-03-24T07:16:10.104Z,5928
2017-03-24T07:17:20.364Z,5976
2017-03-24T07:18:30.312Z,6016
2017-03-24T07:19:40.255Z,6116
2017-03-24T07:20:50.208Z,6324
2017-03-24T07:22:00.162Z,6588
2017-03-24T07:23:10.110Z,6768
2017-03-24T07:24:20.379Z,6824
2017-03-24T07:25:30.645Z,6924
2017-03-24T07:26:40.902Z,7020
2017-03-24T07:27:51.163Z,7048
2017-03-24T07:29:01.431Z,7120
2017-03-24T07:30:11.716Z,7200
2017-03-24T07:31:21.987Z,7324
2017-03-24T07:32:32.241Z,7324
2017-03-24T07:33:42.185Z,7356
2017-03-24T07:34:52.453Z,7212
2017-03-24T07:36:02.081Z,7164
2017-03-24T07:37:12.061Z,7164
2017-03-24T07:38:22.317Z,7160
2017-03-24T07:39:32.581Z,7156
2017-03-24T07:40:42.844Z,7128
2017-03-24T07:41:53.096Z,7048
2017-03-24T07:43:03.354Z,7092
2017-03-24T07:44:13.632Z,6980
2017-03-24T07:45:23.580Z,6864
2017-03-24T07:46:33.524Z,6792
2017-03-24T07:47:43.787Z,6800
2017-03-24T07:48:54.825Z,6848
2017-03-24T07:50:05.180Z,6892
2017-03-24T07:51:15.125Z,6940
2017-03-24T07:52:25.390Z,6952
2017-03-24T07:53:35.650Z,6912
2017-03-24T07:54:45.595Z,6848
2017-03-24T07:55:55.222Z,6732
2017-03-24T07:57:05.163Z,6576
2017-03-24T07:58:15.419Z,6444
2017-03-24T07:59:25.677Z,6304
2017-03-24T08:00:35.931Z,6124
2017-03-24T08:01:46.194Z,5964
2017-03-24T08:02:56.133Z,5800
2017-03-24T08:04:06.392Z,5608
2017-03-24T08:05:16.652Z,5392
2017-03-24T08:06:26.591Z,5148
2017-03-24T08:07:36.544Z,5000
2017-03-24T08:08:46.798Z,5028
2017-03-24T08:09:57.054Z,5248
2017-03-24T08:11:07.306Z,5612
2017-03-24T08:12:17.258Z,6084
2017-03-24T08:13:27.516Z,6680
2017-03-24T08:14:37.459Z,7160
2017-03-24T08:15:47.718Z,7164
2017-03-24T08:16:57.663Z,6964
2017-03-24T08:18:07.600Z,7036
2017-03-24T08:19:17.538Z,7404
2017-03-24T08:20:27.796Z,7880
2017-03-24T08:21:37.735Z,8256
2017-03-24T08:22:47.991Z,8552
2017-03-24T08:23:58.244Z,8780
2017-03-24T08:25:07.875Z,8936
2017-03-24T08:26:18.127Z,9280
2017-03-24T08:27:28.380Z,9776
2017-03-24T08:28:38.638Z,10316
2017-03-24T08:29:48.889Z,10784
2017-03-24T08:30:59.146Z,11088
2017-03-24T08:32:09.091Z,11128
2017-03-24T08:33:19.342Z,10868
2017-03-24T08:34:29.593Z,10536
2017-03-24T08:35:39.850Z,10312
2017-03-24T08:36:50.114Z,10204
2017-03-24T08:37:59.745Z,9960
2017-03-24T08:39:09.998Z,9740
2017-03-24T08:40:20.253Z,9664
2017-03-24T08:41:29.896Z,9792
2017-03-24T08:42:40.156Z,10036
2017-03-24T08:43:50.414Z,10312
2017-03-24T08:45:00.398Z,10400
2017-03-24T08:46:10.026Z,10236
2017-03-24T08:47:20.285Z,9972
2017-03-24T08:48:30.545Z,9864
2017-03-24T08:49:40.798Z,9972
2017-03-24T08:50:50.437Z,10268
2017-03-24T08:52:00.695Z,10680
2017-03-24T08:53:10.637Z,11124
2017-03-24T08:54:20.893Z,11456
2017-03-24T08:55:30.530Z,11656
2017-03-24T08:56:40.789Z,11696
2017-03-24T08:57:51.051Z,11584
2017-03-24T08:59:00.991Z,11392
2017-03-24T09:00:11.256Z,11184
2017-03-24T09:01:20.886Z,11032
2017-03-24T09:02:30.823Z,10996
2017-03-24T09:03:41.078Z,11140
2017-03-24T09:04:51.021Z,11380
2017-03-24T09:06:00.965Z,11580
2017-03-24T09:07:10.905Z,11684
2017-03-24T09:08:20.854Z,11632
2017-03-24T09:09:31.116Z,11464
2017-03-24T09:10:41.373Z,11152
2017-03-24T09:11:51.635Z,10808
2017-03-24T09:13:01.582Z,10544
2017-03-24T09:14:11.836Z,10440
2017-03-24T09:15:22.099Z,10496
2017-03-24T09:16:31.416Z,10692
2017-03-24T09:17:41.358Z,10992
2017-03-24T09:18:51.610Z,11272
2017-03-24T09:20:01.550Z,11388
2017-03-24T09:21:11.814Z,11368
2017-03-24T09:22:22.074Z,11348
2017-03-24T09:23:32.332Z,11276
2017-03-24T09:24:42.315Z,11100
2017-03-24T09:25:52.571Z,10928
2017-03-24T09:27:02.206Z,10840
2017-03-24T09:28:12.464Z,10796
2017-03-24T09:29:22.721Z,10756
2017-03-24T09:30:32.977Z,10740
2017-03-24T09:31:43.233Z,10820
2017-03-24T09:32:53.488Z,11036
2017-03-24T09:34:03.434Z,11244
2017-03-24T09:35:13.381Z,11232
2017-03-24T09:36:23.641Z,11040
2017-03-24T09:37:33.895Z,10840
2017-03-24T09:38:44.152Z,10868
2017-03-24T09:39:53.476Z,10844
2017-03-24T09:41:03.740Z,10836
2017-03-24T09:42:13.999Z,10900
2017-03-24T09:43:24.263Z,11080
2017-03-24T09:44:34.211Z,11344
2017-03-24T09:45:43.526Z,11552
2017-03-24T09:46:53.470Z,11912
2017-03-24T09:48:03.735Z,12380
2017-03-24T09:49:13.694Z,12916
2017-03-24T09:50:23.946Z,13412
2017-03-24T09:51:33.886Z,13860
2017-03-24T09:52:44.142Z,13900
2017-03-24T09:53:53.458Z,13916
2017-03-24T09:55:03.403Z,13488
2017-03-24T09:56:13.351Z,13116
2017-03-24T09:57:22.988Z,12824
2017-03-24T09:58:32.936Z,12620
2017-03-24T09:59:43.204Z,12652
2017-03-24T10:00:53.152Z,12736
2017-03-24T10:02:03.409Z,12860
2017-03-24T10:03:13.054Z,12948
2017-03-24T10:04:23.002Z,12972
2017-03-24T10:05:33.257Z,12900
2017-03-24T10:06:43.523Z,12632
2017-03-24T10:07:53.463Z,12220
2017-03-24T10:09:03.399Z,11860
2017-03-24T10:10:13.339Z,11672
2017-03-24T10:11:23.283Z,11620
2017-03-24T10:12:33.536Z,11756
2017-03-24T10:13:43.481Z,12092
2017-03-24T10:14:53.744Z,12508
2017-03-24T10:16:04.039Z,12772
2017-03-24T10:17:13.984Z,12864
2017-03-24T10:18:23.930Z,12852
2017-03-24T10:19:33.874Z,12916
2017-03-24T10:20:43.822Z,13032
2017-03-24T10:21:53.765Z,13144
2017-03-24T10:23:04.017Z,13216
2017-03-24T10:24:13.962Z,13240
2017-03-24T10:25:23.902Z,13088
2017-03-24T10:26:34.156Z,12728
2017-03-24T10:27:44.412Z,12224
2017-03-24T10:28:54.678Z,11784
2017-03-24T10:30:04.758Z,11496
2017-03-24T10:31:15.018Z,11368
2017-03-24T10:32:24.963Z,11464
2017-03-24T10:33:35.228Z,11732
2017-03-24T10:34:45.179Z,12084
2017-03-24T10:35:55.461Z,12436
2017-03-24T10:37:05.408Z,12872
2017-03-24T10:38:15.349Z,13368
2017-03-24T10:39:25.606Z,13884
2017-03-24T10:40:35.860Z,13908
2017-03-24T10:41:46.125Z,13220
2017-03-24T10:42:56.386Z,12096
2017-03-24T10:44:06.330Z,11260
2017-03-24T10:45:16.594Z,10864
2017-03-24T10:46:26.582Z,10764
2017-03-24T10:47:36.527Z,10484
2017-03-24T10:48:46.785Z,10816
2017-03-24T10:49:57.041Z,10968
2017-03-24T10:51:06.674Z,11016
2017-03-24T10:52:16.616Z,11112
2017-03-24T10:53:26.878Z,11368
2017-03-24T10:54:37.136Z,11660
2017-03-24T10:55:46.772Z,11944
2017-03-24T10:56:57.072Z,11824
2017-03-24T10:58:07.330Z,12016
2017-03-24T10:59:17.281Z,12076
2017-03-24T11:00:27.565Z,12164
2017-03-24T11:01:37.827Z,12180
2017-03-24T11:02:48.085Z,12116
2017-03-24T11:03:58.337Z,12112
2017-03-24T11:05:08.288Z,11928
2017-03-24T11:06:18.554Z,11396
2017-03-24T11:07:28.822Z,10580
2017-03-24T11:08:38.773Z,9568
2017-03-24T11:09:49.027Z,8596
2017-03-24T11:10:59.006Z,7880
2017-03-24T11:12:08.637Z,7632
2017-03-24T11:13:18.889Z,7776
2017-03-24T11:14:28.830Z,8084
2017-03-24T11:15:39.091Z,8300
2017-03-24T11:16:49.030Z,8396
2017-03-24T11:17:59.278Z,8372
2017-03-24T11:19:08.912Z,8232
2017-03-24T11:20:18.853Z,8068
2017-03-24T11:21:28.795Z,7912
2017-03-24T11:22:39.048Z,7880
2017-03-24T11:23:49.321Z,8000
2017-03-24T11:24:59.576Z,8244
2017-03-24T11:26:09.521Z,8620
2017-03-24T11:27:19.465Z,9052
2017-03-24T11:28:29.724Z,9456
2017-03-24T11:29:39.666Z,9728
2017-03-24T11:30:49.602Z,10044
2017-03-24T11:31:59.542Z,10272
2017-03-24T11:33:09.797Z,10544
2017-03-24T11:34:20.052Z,10760
2017-03-24T11:35:29.991Z,10920
2017-03-24T11:36:40.248Z,10900
2017-03-24T11:37:50.504Z,11336
2017-03-24T11:39:00.756Z,11704
2017-03-24T11:40:11.010Z,11688
2017-03-24T11:41:20.959Z,11176
2017-03-24T11:42:31.215Z,10652
2017-03-24T11:43:41.197Z,10096
2017-03-24T11:44:51.136Z,9420
2017-03-24T11:46:01.386Z,8792
2017-03-24T11:47:11.660Z,8108
2017-03-24T11:48:21.603Z,7536
2017-03-24T11:49:31.546Z,7232
2017-03-24T11:50:41.805Z,6932
2017-03-24T11:51:52.065Z,7032
2017-03-24T11:53:01.689Z,7072
2017-03-24T11:54:11.636Z,7492
2017-03-24T11:55:21.274Z,8036
2017-03-24T11:56:31.902Z,8436
2017-03-24T11:57:41.842Z,8828
2017-03-24T11:58:51.805Z,8624
2017-03-24T12:00:01.453Z,8312
2017-03-24T12:01:11.397Z,7704
2017-03-24T12:02:21.025Z,7216
2017-03-24T12:03:31.293Z,6756
2017-03-24T12:04:41.561Z,6376
2017-03-24T12:05:51.501Z,6132
2017-03-24T12:07:01.442Z,5968
2017-03-24T12:08:10.765Z,5904
2017-03-24T12:09:21.025Z,6008
2017-03-24T12:10:31.325Z,6140
2017-03-24T12:11:41.263Z,6324
2017-03-24T12:12:51.520Z,6444
2017-03-24T12:14:01.805Z,6472
2017-03-24T12:15:11.430Z,6452
2017-03-24T12:16:21.377Z,6412
2017-03-24T12:17:31.631Z,6340
2017-03-24T12:18:41.610Z,6184
2017-03-24T12:19:51.862Z,6032
2017-03-24T12:21:01.492Z,5936
2017-03-24T12:22:11.140Z,5928
2017-03-24T12:23:21.079Z,5912
2017-03-24T12:24:30.704Z,5816
2017-03-24T12:25:40.957Z,5792
2017-03-24T12:26:50.903Z,5668
2017-03-24T12:28:01.158Z,5768
2017-03-24T12:29:11.108Z,5620
2017-03-24T12:30:21.366Z,5608
2017-03-24T12:31:31.622Z,5668
2017-03-24T12:32:41.570Z,5680
2017-03-24T12:33:51.515Z,5612
2017-03-24T12:35:01.774Z,5720
2017-03-24T12:36:12.030Z,5616
2017-03-24T12:37:22.285Z,5580
2017-03-24T12:38:32.545Z,5536
2017-03-24T12:39:42.489Z,5360
2017-03-24T12:40:51.805Z,5180
2017-03-24T12:42:02.065Z,5092
2017-03-24T12:43:12.006Z,5048
2017-03-24T12:44:21.951Z,4800
2017-03-24T12:45:31.276Z,4696
2017-03-24T12:46:41.220Z,4772
2017-03-24T12:47:50.847Z,4784
2017-03-24T12:49:01.109Z,4772
2017-03-24T12:50:11.056Z,4716
2017-03-24T12:51:21.319Z,4596
2017-03-24T12:52:31.272Z,4448
2017-03-24T12:53:41.528Z,4248
2017-03-24T12:54:51.784Z,4032
2017-03-24T12:56:01.724Z,3880
2017-03-24T12:57:11.671Z,3712
2017-03-24T12:58:21.608Z,3520
2017-03-24T12:59:31.236Z,3432
2017-03-24T13:00:40.869Z,3368
2017-03-24T13:01:50.855Z,3372
2017-03-24T13:03:01.121Z,3376
2017-03-24T13:04:11.067Z,3332
2017-03-24T13:05:21.332Z,3284
2017-03-24T13:06:31.274Z,3268
2017-03-24T13:07:41.214Z,3284
2017-03-24T13:08:51.471Z,3268
2017-03-24T13:10:01.736Z,3260
2017-03-24T13:11:12.004Z,3232
2017-03-24T13:12:22.267Z,3236
2017-03-24T13:13:32.517Z,3268
2017-03-24T13:14:42.461Z,3308
2017-03-24T13:15:52.400Z,3296
2017-03-24T13:17:02.344Z,3248
2017-03-24T13:18:12.286Z,3200
2017-03-24T13:19:21.612Z,3204
2017-03-24T13:20:30.928Z,3256
2017-03-24T13:21:41.199Z,3300
2017-03-24T13:22:51.455Z,3304
2017-03-24T13:24:01.397Z,3264
2017-03-24T13:25:11.065Z,3196
2017-03-24T13:26:21.365Z,3116
2017-03-24T13:27:30.999Z,3072
2017-03-24T13:28:40.948Z,3044
2017-03-24T13:29:50.892Z,2992
2017-03-24T13:31:01.145Z,2940
2017-03-24T13:32:11.406Z,2872
2017-03-24T13:33:21.667Z,2812
2017-03-24T13:34:30.979Z,2816
2017-03-24T13:35:40.606Z,2804
2017-03-24T13:36:50.547Z,2776
2017-03-24T13:38:00.492Z,2680
2017-03-24T13:39:09.803Z,2584
2017-03-24T13:40:19.740Z,2536
2017-03-24T13:41:30.002Z,2544
2017-03-24T13:42:40.264Z,2508
2017-03-24T13:43:50.517Z,2488
2017-03-24T13:45:00.773Z,2512
2017-03-24T13:46:10.430Z,2540
2017-03-24T13:47:20.061Z,2560
2017-03-24T13:48:30.311Z,2596
2017-03-24T13:49:40.256Z,2580
2017-03-24T13:50:50.510Z,2580
2017-03-24T13:52:00.762Z,2584
2017-03-24T13:53:10.703Z,2628
2017-03-24T13:54:20.968Z,2704
2017-03-24T13:55:31.232Z,2752
2017-03-24T13:56:40.546Z,2808
2017-03-24T13:57:50.498Z,2904
2017-03-24T13:59:00.751Z,2996
2017-03-24T14:00:10.693Z,3112
2017-03-24T14:01:20.982Z,3172
2017-03-24T14:02:31.248Z,3184
2017-03-24T14:03:41.190Z,3164
2017-03-24T14:04:51.452Z,3176
2017-03-24T14:06:01.385Z,3184
2017-03-24T14:07:11.641Z,3192
2017-03-24T14:08:21.580Z,3232
2017-03-24T14:09:31.530Z,3308
2017-03-24T14:10:41.497Z,3412
2017-03-24T14:11:51.432Z,3588
2017-03-24T14:13:01.376Z,3764
2017-03-24T14:14:11.636Z,3832
2017-03-24T14:15:21.260Z,3772
2017-03-24T14:16:31.516Z,3684
2017-03-24T14:17:41.456Z,3616
2017-03-24T14:18:51.748Z,3568
2017-03-24T14:20:01.706Z,3524
2017-03-24T14:21:11.965Z,3472
2017-03-24T14:22:22.216Z,3396
2017-03-24T14:23:32.473Z,3308
2017-03-24T14:24:42.730Z,3256
2017-03-24T14:25:52.046Z,3288
2017-03-24T14:27:02.307Z,3408
2017-03-24T14:28:12.572Z,3580
2017-03-24T14:29:22.198Z,3772
2017-03-24T14:30:32.148Z,3916
2017-03-24T14:31:42.406Z,3976
2017-03-24T14:32:52.345Z,3988
2017-03-24T14:34:01.979Z,3956
2017-03-24T14:35:11.294Z,3888
2017-03-24T14:36:21.601Z,3804
2017-03-24T14:37:30.601Z,3684
2017-03-24T14:38:39.913Z,3560
2017-03-24T14:39:50.170Z,3468
2017-03-24T14:41:00.111Z,3408
2017-03-24T14:42:10.050Z,3340
2017-03-24T14:43:19.992Z,3220
2017-03-24T14:44:29.617Z,3068
2017-03-24T14:45:38.939Z,2912
2017-03-24T14:46:48.889Z,2768
2017-03-24T14:47:59.140Z,2660
2017-03-24T14:49:09.081Z,2552
2017-03-24T14:50:18.713Z,2460
2017-03-24T14:51:28.654Z,2364
2017-03-24T14:52:40.599Z,2280
2017-03-24T14:53:50.862Z,2220
2017-03-24T14:55:00.489Z,2176
2017-03-24T14:56:09.808Z,2136
2017-03-24T14:57:20.068Z,2088
2017-03-24T14:58:30.011Z,2052
2017-03-24T14:59:40.269Z,2040
2017-03-24T15:00:50.219Z,2016
2017-03-24T15:02:00.160Z,1976
2017-03-24T15:03:10.108Z,1944
2017-03-24T15:04:20.066Z,1912
2017-03-24T15:05:29.694Z,1868
2017-03-24T15:06:39.634Z,1812
2017-03-24T15:07:49.887Z,1752
2017-03-24T15:08:59.830Z,1704
2017-03-24T15:10:09.772Z,1664
2017-03-24T15:11:19.089Z,1660
2017-03-24T15:12:29.349Z,1664
2017-03-24T15:13:38.977Z,1684
2017-03-24T15:14:49.236Z,1724
2017-03-24T15:15:58.862Z,1780
2017-03-24T15:17:08.489Z,1864
2017-03-24T15:18:18.116Z,1964
2017-03-24T15:19:28.372Z,2060
2017-03-24T15:20:38.617Z,2160
2017-03-24T15:21:48.566Z,2188
2017-03-24T15:22:58.199Z,2188
2017-03-24T15:24:08.456Z,2168
2017-03-24T15:25:18.078Z,2100
2017-03-24T15:26:28.380Z,1956
2017-03-24T15:27:38.635Z,1776
2017-03-24T15:28:48.583Z,1624
2017-03-24T15:29:58.214Z,1544
2017-03-24T15:31:08.468Z,1516
2017-03-24T15:32:17.783Z,1516
2017-03-24T15:33:27.723Z,1540
2017-03-24T15:34:37.973Z,1584
2017-03-24T15:35:47.915Z,1636
2017-03-24T15:36:58.171Z,1680
2017-03-24T15:38:07.809Z,1688
2017-03-24T15:39:18.067Z,1652
2017-03-24T15:40:28.320Z,1608
2017-03-24T15:41:37.948Z,1572
2017-03-24T15:42:48.198Z,1564
2017-03-24T15:43:58.454Z,1604
2017-03-24T15:45:08.716Z,1664
2017-03-24T15:46:18.654Z,1768
2017-03-24T15:47:28.942Z,1924
2017-03-24T15:48:39.204Z,2064
2017-03-24T15:49:49.143Z,2020
2017-03-24T15:50:59.394Z,1820
2017-03-24T15:52:09.655Z,1548
2017-03-24T15:53:19.297Z,1268
2017-03-24T15:54:29.284Z,1056
2017-03-24T15:55:39.540Z,908
2017-03-24T15:56:49.794Z,816
2017-03-24T15:57:59.424Z,784
2017-03-24T15:59:09.682Z,788